WetterOnline ( http://www.wetteronline.de )

Wetter aktuell Braunschweig

Aktuelles Wetter: Braunschweig/Flughafen (88m)

6-stündlich | Neueste Meldungen
Ortszeit Temperatur Wetter
Mi, 19.09. 8:00 15.9° C leicht bewölkt
Mi, 19.09. 2:00 19.9° C leicht bewölkt
Di, 18.09. 20:00 26.2° C wolkenlos
Di, 18.09. 14:00 29.3° C wolkenlos
Di, 18.09. 8:00 15.3° C leicht bewölkt
Di, 18.09. 2:00 15.9° C wolkig
Mo, 17.09. 20:00 19.5° C leicht bewölkt
Mo, 17.09. 14:00 24.0° C leicht bewölkt
Ortszeit Temperatur Wetter
Mi, 19.09. 12:20 25° C -
Mi, 19.09. 12:00 24.1° C wolkenlos
Mi, 19.09. 11:50 24.1° C wolkenlos
Mi, 19.09. 11:40 23.9° C wolkenlos
Mi, 19.09. 11:30 23.3° C wolkenlos
Mi, 19.09. 11:20 23.3° C wolkenlos
Mi, 19.09. 11:00 22.3° C leicht bewölkt
Mi, 19.09. 10:30 21.4° C leicht bewölkt
Mi, 19.09. 10:00 20.5° C leicht bewölkt
Mi, 19.09. 9:30 19.5° C leicht bewölkt
Mi, 19.09. 9:00 18.3° C fast wolkenlos
Ortszeit Relative Feuchte Sichtweite
Mi, 19.09. 8:00 75% 22 km
Mi, 19.09. 2:00 55% 17 km
Di, 18.09. 20:00 38% 70 km
Di, 18.09. 14:00 29% 35 km
Di, 18.09. 8:00 58% 28 km
Di, 18.09. 2:00 60% 70 km
Mo, 17.09. 20:00 53% 65 km
Mo, 17.09. 14:00 37% 45 km
Ortszeit Relative Feuchte Sichtweite
Mi, 19.09. 12:20 44% >10 km
Mi, 19.09. 12:00 47% 60 km
Mi, 19.09. 11:50 47% -
Mi, 19.09. 11:40 47% -
Mi, 19.09. 11:30 48% 40 km
Mi, 19.09. 11:20 48% -
Mi, 19.09. 11:00 52% 45 km
Mi, 19.09. 10:30 56% 35 km
Mi, 19.09. 10:00 60% 40 km
Mi, 19.09. 9:30 64% 35 km
Mi, 19.09. 9:00 67% 30 km
Ortszeit Niederschlagsmenge Niederschlagsart
Mi, 19.09. 8:00 0.0 l/m2 in 12 Std. -
Mi, 19.09. 2:00 0.0 l/m2 in 6 Std. -
Di, 18.09. 20:00 0.0 l/m2 in 12 Std. -
Di, 18.09. 14:00 0.0 l/m2 in 6 Std. -
Di, 18.09. 8:00 0.0 l/m2 in 12 Std. -
Di, 18.09. 2:00 0.0 l/m2 in 6 Std. -
Mo, 17.09. 20:00 0.0 l/m2 in 12 Std. -
Mo, 17.09. 14:00 0.0 l/m2 in 6 Std. -
Ortszeit Niederschlagsmenge Niederschlagsart
Mi, 19.09. 12:20 keine Meldung -
Mi, 19.09. 12:00 0.0 l/m2 in 1 Std. -
Mi, 19.09. 11:50 keine Meldung -
Mi, 19.09. 11:40 keine Meldung -
Mi, 19.09. 11:30 0.0 l/m2 in 1 Std. -
Mi, 19.09. 11:20 keine Meldung -
Mi, 19.09. 11:00 0.0 l/m2 in 1 Std. -
Mi, 19.09. 10:30 0.0 l/m2 in 1 Std. -
Mi, 19.09. 10:00 0.0 l/m2 in 1 Std. -
Mi, 19.09. 9:30 0.0 l/m2 in 1 Std. -
Mi, 19.09. 9:00 0.0 l/m2 in 1 Std. -
Ortszeit Stärke Spitze Richtung
km/h Bft. km/h Grad Sektor
Mi, 19.09. 8:00 13 3 15 210° SW
Mi, 19.09. 2:00 7 2 18 280° W
Di, 18.09. 20:00 7 2 36 180° S
Di, 18.09. 14:00 19 3 33 230° SW
Di, 18.09. 8:00 14 3 25 160° S
Di, 18.09. 2:00 13 3 19 170° S
Mo, 17.09. 20:00 4 1 25 160° S
Mo, 17.09. 14:00 7 2 14 200° S
Ortszeit Stärke Spitze Richtung
km/h Bft. km/h Grad Sektor
Mi, 19.09. 12:20 9 2 - 210° SW
Mi, 19.09. 12:00 11 2 22 220° SW
Mi, 19.09. 11:50 11 2 - 220° SW
Mi, 19.09. 11:40 11 2 - 200° S
Mi, 19.09. 11:30 11 2 18 220° SW
Mi, 19.09. 11:20 11 2 - 220° SW
Mi, 19.09. 11:00 11 2 19 180° S
Mi, 19.09. 10:30 11 2 18 210° SW
Mi, 19.09. 10:00 13 3 19 200° S
Mi, 19.09. 9:30 11 2 18 210° SW
Mi, 19.09. 9:00 9 2 15 210° SW
Ortszeit Untergrenze Bedeckung Gattung
total tief tief mittel hoch
Mi, 19.09. 8:00 6000 m 2/8 2/8 - - -
Mi, 19.09. 2:00 5700 m 2/8 5/8 - - -
Di, 18.09. 20:00 - 0/8 0/8 - - -
Di, 18.09. 14:00 - 0/8 0/8 - - -
Di, 18.09. 8:00 9000 m 5/8 0/8 - - -
Di, 18.09. 2:00 12000 m 8/8 0/8 - - -
Mo, 17.09. 20:00 10500 m 5/8 0/8 - - -
Mo, 17.09. 14:00 10500 m 5/8 0/8 - - -
Ortszeit Bedeckungsgrad in Achtel und Wolkenuntergrenze
Mi, 19.09. 12:20 keine Wolken(unter 1500 m)
Mi, 19.09. 12:00 keine Wolken
Mi, 19.09. 11:50 keine Wolken
Mi, 19.09. 11:40 keine Wolken
Mi, 19.09. 11:30 keine Wolken
Mi, 19.09. 11:20 keine Wolken
Mi, 19.09. 11:00 1(1800m) 3(9000m)
Mi, 19.09. 10:30 2(1500m) 3(9000m)
Mi, 19.09. 10:00 1(1440m) 9 9
Mi, 19.09. 9:30 1(1470m) 4(9000m)
Mi, 19.09. 9:00 1(9000m)
Ortszeit Luftdruck NN (hPa) Tendenz (hPa in 3 Std.)
Mi, 19.09. 8:00 1018 + 1,0
Mi, 19.09. 2:00 1016 + 2,2
Di, 18.09. 20:00 1012 + 0,1
Di, 18.09. 14:00 1013 - 1,4
Di, 18.09. 8:00 1015 - 0,6
Di, 18.09. 2:00 1017 - 0,8
Mo, 17.09. 20:00 1018 - 0,3
Mo, 17.09. 14:00 1019 - 1,2
Ortszeit Luftdruck NN (hPa) Tendenz (hPa in 3 Std.)
Mi, 19.09. 12:20 1018 keine Meldung
Mi, 19.09. 12:00 1018 0,0
Mi, 19.09. 11:50 1018 keine Meldung
Mi, 19.09. 11:40 1018 keine Meldung
Mi, 19.09. 11:30 1018 + 0,2
Mi, 19.09. 11:20 1018 keine Meldung
Mi, 19.09. 11:00 1018 + 0,3
Mi, 19.09. 10:30 1018 + 0,9
Mi, 19.09. 10:00 1018 + 1,0
Mi, 19.09. 9:30 1018 + 0,9
Mi, 19.09. 9:00 1018 + 0,9
Ortszeit Schneehöhe (cm)
Mi, 19.09. 8:00 -
Mi, 19.09. 2:00 -
Di, 18.09. 20:00 -
Di, 18.09. 14:00 -
Di, 18.09. 8:00 -
Di, 18.09. 2:00 -
Mo, 17.09. 20:00 -
Mo, 17.09. 14:00 -
Ortszeit Schneehöhe (cm)
Mi, 19.09. 12:20 -
Mi, 19.09. 12:00 -
Mi, 19.09. 11:50 -
Mi, 19.09. 11:40 -
Mi, 19.09. 11:30 -
Mi, 19.09. 11:20 -
Mi, 19.09. 11:00 -
Mi, 19.09. 10:30 -
Mi, 19.09. 10:00 -
Mi, 19.09. 9:30 -
Mi, 19.09. 9:00 -
Link zu dieser Seite / Seite empfehlen

Das Wetter in ...